Weather observations for the past three days for
Long Beach, Long Beach Airport
Imperial (Metric)
Date Time (pdt) Wind (mph) Vis. (mi.) Weather Sky Cond. Temperature (ºF) Relative Humidity Wind Chill (°F) Heat Index (°F) Pressure Precipitation (in)
Air Dwpt 6 hour altimeter (in) sea level (mb) 1 hr 3 hr 6 hr
Max. Min.
04 02:53 Calm 10.00 A Few Clouds FEW021 66.9 62.1 84% 29.88 1011.9
04 01:53 Calm 10.00 A Few Clouds FEW017 68 62.1 81% 29.89 1011.9
04 00:53 Calm 10.00 Fair CLR 68 62.1 81% 29.89 1012.1
03 23:53 Calm 10.00 Fair CLR 68 63 84% 29.89 1012.0
03 22:53 Calm 10.00 Fair CLR 69.1 63 77 69.1 81% 29.88 1011.8
03 21:53 NW 5 10.00 Fair CLR 70 62.1 76% 29.89 1012.0
03 20:53 NW 7 10.00 Fair CLR 70 63 79% 29.88 1011.6
03 19:53 NW 8 10.00 Fair CLR 71.1 60.1 68% 29.86 1011.0
03 18:53 W 9 10.00 Fair CLR 73.9 55.9 54% 29.86 1011.0
03 17:53 NW 10 10.00 Fair CLR 77 61 58% 79 29.86 1011.0
03 16:53 S 8 10.00 Fair CLR 77 61 78.1 73.9 58% 79 29.86 1011.2
03 15:53 S 8 10.00 Fair CLR 75.9 62.1 62% 78 29.88 1011.7
03 14:53 S 12 10.00 Fair CLR 75.9 63 64% 78 29.9 1012.4
03 13:53 S 8 10.00 Fair CLR 77 63 62% 79 29.91 1012.7
03 12:53 Vrbl 7 10.00 Fair CLR 77 61 58% 79 29.92 1013.1
03 11:53 S 8 10.00 Fair CLR 77 61 58% 79 29.94 1013.9
03 10:53 S 10 10.00 Mostly Cloudy BKN024 75 61 75 64.9 62% 77 29.95 1014.2
03 09:53 Vrbl 3 10.00 Mostly Cloudy BKN024 72 60.1 66% 29.95 1014.3
03 08:53 Calm 10.00 Mostly Cloudy BKN025 71.1 61 71% 29.95 1014.2
03 07:53 E 5 10.00 Mostly Cloudy BKN023 68 59 73% 29.95 1014.2
03 06:53 E 3 10.00 Partly Cloudy SCT023 66 57 73% 29.93 1013.5
03 05:53 Calm 10.00 A Few Clouds FEW015 66 59 78% 29.93 1013.5
03 04:53 E 3 10.00 Fair CLR 66.9 59 71.1 66 76% 29.93 1013.5
03 03:53 Calm 10.00 A Few Clouds FEW017 66 60.1 81% 29.94 1013.7
03 02:53 E 3 10.00 Fair CLR 66 62.1 87% 29.94 1013.9
03 01:53 E 5 10.00 Fair CLR 68 63 84% 29.96 1014.3
03 00:53 Calm 10.00 Fair CLR 70 64 82% 29.97 1014.6
02 23:53 S 3 10.00 Fair CLR 70 63 79% 29.96 1014.5
02 22:53 Vrbl 3 10.00 Fair CLR 71.1 59 80.1 71.1 66% 29.96 1014.4
02 21:53 W 7 10.00 Fair CLR 72 57.9 61% 29.96 1014.4
02 20:53 W 6 10.00 Fair CLR 72 57 59% 29.95 1014.1
02 19:53 W 9 10.00 Fair CLR 72 57.9 61% 29.94 1013.7
02 18:53 W 9 10.00 Fair CLR 73.9 57 56% 29.93 1013.5
02 17:53 NW 10 10.00 Fair CLR 75.9 57.9 54% 78 29.93 1013.4
02 16:53 NW 14 10.00 Fair CLR 80.1 57.9 82 73.9 47% 81 29.93 1013.3
02 15:53 S 7 10.00 Fair CLR 81 57.9 45% 81 29.94 1013.7
02 14:53 SW 9 10.00 Fair CLR 78.1 57 48% 79 29.96 1014.5
02 13:53 S 10 10.00 Fair CLR 79 57 47% 80 29.97 1014.9
02 12:53 S 6 10.00 Fair CLR 78.1 57.9 50% 79 29.99 1015.5
02 11:53 Vrbl 5 10.00 Fair CLR 75 59 58% 77 30.01 1016.1
02 10:53 Vrbl 6 10.00 Fair CLR 75 60.1 75 64 60% 77 30.01 1016.3
02 09:53 Vrbl 3 10.00 A Few Clouds FEW025 72 60.1 66% 30 1016.0
02 08:53 Calm 10.00 A Few Clouds FEW015 70 59 68% 30 1015.8
02 07:53 E 3 10.00 Fair CLR 68 59 73% 30 1015.9
02 06:53 Calm 10.00 Fair CLR 64.9 57.9 78% 29.99 1015.3
02 05:53 Calm 10.00 Fair CLR 64 57.9 81% 29.98 1015.0
02 04:53 Calm 10.00 Fair CLR 64 57.9 70 64 81% 29.98 1015.1
02 03:53 E 5 10.00 Fair CLR 64 57.9 81% 29.98 1015.2
02 02:53 Calm 10.00 Fair CLR 66 59 78% 29.99 1015.4
02 01:53 SE 3 10.00 Fair CLR 66.9 59 76% 29.99 1015.4
02 00:53 Calm 10.00 Fair CLR 68 59 73% 29.99 1015.6
01 23:53 SW 5 10.00 Fair CLR 69.1 59 70% 29.98 1015.0
01 22:53 NW 3 10.00 Fair CLR 70 57.9 79 69.1 66% 29.97 1014.9
01 21:53 NW 7 10.00 Fair CLR 70 57.9 66% 29.97 1014.7
01 20:53 NW 8 10.00 Fair CLR 70 59 68% 29.94 1013.9
01 19:53 NW 10 10.00 Fair CLR 71.1 60.1 68% 29.93 1013.3
01 18:53 W 10 10.00 Fair CLR 73 59 62% 29.92 1013.1
01 17:53 NW 13 10.00 Fair CLR 75.9 59 56% 78 29.93 1013.3
01 16:53 W 13 10.00 Fair CLR 79 57.9 84 75 49% 80 29.93 1013.4
01 15:53 NW 10 10.00 Fair CLR 82 60.1 47% 82 29.93 1013.3
01 14:53 S 9 10.00 Fair CLR 82 50 33% 81 29.94 1013.9
01 12:53 S 9 10.00 Fair CLR 80.1 60.1 51% 81 29.97 1014.9
01 11:53 SW 7 10.00 Fair CLR 75.9 61 60% 78 29.99 1015.4
01 10:53 Calm 10.00 Fair CLR 75.9 61 75.9 64.9 60% 78 29.99 1015.4
01 09:53 Vrbl 3 10.00 A Few Clouds FEW021 72 61 68% 29.99 1015.4
01 08:53 Calm 10.00 Mostly Cloudy BKN017 69.1 61 76% 29.99 1015.4
01 07:53 Calm 10.00 Mostly Cloudy BKN016 68 61 78% 29.97 1014.9
01 06:53 Calm 10.00 Overcast OVC017 66.9 61 81% 29.96 1014.4
01 05:53 Calm 10.00 Overcast OVC018 66.9 61 81% 29.94 1013.9
01 04:53 NE 3 10.00 A Few Clouds FEW017 64.9 61 69.1 64.9 87% 29.94 1013.6
01 03:53 N 3 10.00 Fair CLR 66 61 84% 29.95 1014.0
Date Time (pdt) Wind (mph) Vis. (mi.) Weather Sky Cond. Air Dwpt Max. Min. Relative Humidity Wind Chill (°F) Heat Index (°F) altimeter (in) sea level (mb) 1 hr 3 hr 6 hr
6 hour
Temperature (ºF) Pressure Precipitation (in)